createdAt,value
2018-11-21T00:01:00.809Z,1.80
2018-11-21T00:03:29.816Z,1.70
2018-11-21T00:05:58.653Z,1.80
2018-11-21T00:08:27.463Z,1.80
2018-11-21T00:10:56.220Z,1.80
2018-11-21T00:13:24.890Z,1.80
2018-11-21T00:15:53.772Z,1.90
2018-11-21T00:18:22.413Z,1.80
2018-11-21T00:20:51.173Z,1.80
2018-11-21T00:23:20.073Z,1.80
2018-11-21T00:25:48.775Z,1.80
2018-11-21T00:28:17.592Z,1.80
2018-11-21T00:30:46.267Z,1.80
2018-11-21T00:33:15.212Z,1.90
2018-11-21T00:35:44.013Z,1.80
2018-11-21T00:38:12.828Z,1.70
2018-11-21T00:40:41.623Z,1.70
2018-11-21T00:43:10.794Z,1.70
2018-11-21T00:45:39.503Z,1.80
2018-11-21T00:48:08.457Z,1.80
2018-11-21T00:50:37.179Z,1.80
2018-11-21T00:53:06.006Z,1.80
2018-11-21T00:55:34.843Z,1.70
2018-11-21T00:58:03.721Z,1.70
2018-11-21T01:00:32.444Z,1.70
2018-11-21T01:03:01.109Z,1.70
2018-11-21T01:05:30.001Z,1.70
2018-11-21T01:07:58.910Z,1.70
2018-11-21T01:10:27.569Z,1.60
2018-11-21T01:12:56.479Z,1.60
2018-11-21T01:15:26.531Z,1.70
2018-11-21T01:17:55.242Z,1.60
2018-11-21T01:20:24.265Z,1.70
2018-11-21T01:22:54.115Z,1.70
2018-11-21T01:25:21.991Z,1.60
2018-11-21T01:27:50.841Z,1.60
2018-11-21T01:30:19.647Z,1.60
2018-11-21T01:32:48.393Z,1.60
2018-11-21T01:35:17.192Z,1.70
2018-11-21T01:37:45.896Z,1.60
2018-11-21T01:40:14.663Z,1.60
2018-11-21T01:42:43.403Z,1.70
2018-11-21T01:45:12.357Z,1.70
2018-11-21T01:47:41.136Z,1.70
2018-11-21T01:50:09.953Z,1.80
2018-11-21T01:52:38.851Z,1.80
2018-11-21T01:55:07.782Z,1.70
2018-11-21T01:57:36.454Z,1.70
2018-11-21T02:00:06.342Z,1.70
2018-11-21T02:02:35.179Z,1.70
2018-11-21T02:05:03.965Z,1.60
2018-11-21T02:07:32.827Z,1.60
2018-11-21T02:10:01.564Z,1.60
2018-11-21T02:12:30.437Z,1.60
2018-11-21T02:14:59.189Z,1.50
2018-11-21T02:17:28.120Z,1.50
2018-11-21T02:19:56.895Z,1.40
2018-11-21T02:22:25.613Z,1.40
2018-11-21T02:24:54.287Z,1.40
2018-11-21T02:27:23.165Z,1.40
2018-11-21T02:29:52.004Z,1.40
2018-11-21T02:32:20.852Z,1.40
2018-11-21T02:34:49.549Z,1.40
2018-11-21T02:37:18.468Z,1.40
2018-11-21T02:39:47.133Z,1.50
2018-11-21T02:42:15.916Z,1.40
2018-11-21T02:44:44.618Z,1.40
2018-11-21T02:47:13.365Z,1.40
2018-11-21T02:49:42.185Z,1.30
2018-11-21T02:52:10.883Z,1.20
2018-11-21T02:54:39.738Z,1.20
2018-11-21T02:57:37.381Z,1.10
2018-11-21T03:00:17.040Z,1.00
2018-11-21T03:02:45.717Z,0.90
2018-11-21T03:05:14.550Z,0.90
2018-11-21T03:07:53.690Z,0.80
2018-11-21T03:10:23.493Z,0.90
2018-11-21T03:12:52.357Z,0.80
2018-11-21T03:15:21.215Z,0.60
2018-11-21T03:17:50.079Z,0.80
2018-11-21T03:20:18.974Z,0.80
2018-11-21T03:22:48.039Z,0.70
2018-11-21T03:25:16.831Z,0.70
2018-11-21T03:27:45.627Z,0.70
2018-11-21T03:30:14.330Z,0.70
2018-11-21T03:32:43.251Z,0.70
2018-11-21T03:35:12.070Z,0.70
2018-11-21T03:37:40.753Z,0.70
2018-11-21T03:40:10.886Z,0.70
2018-11-21T03:42:39.980Z,0.60
2018-11-21T03:45:10.051Z,0.60
2018-11-21T03:47:38.812Z,0.50
2018-11-21T03:50:09.317Z,0.50
2018-11-21T03:52:38.129Z,0.50
2018-11-21T03:55:07.713Z,0.50
2018-11-21T03:57:37.719Z,0.60
2018-11-21T04:00:08.728Z,0.60
2018-11-21T04:02:37.600Z,0.30
2018-11-21T04:05:07.435Z,0.30
2018-11-21T04:07:36.255Z,0.40
2018-11-21T04:10:08.676Z,0.30
2018-11-21T04:12:37.620Z,0.30
2018-11-21T04:15:08.256Z,0.20
2018-11-21T04:17:37.164Z,0.10
2018-11-21T04:20:06.657Z,-0.10
2018-11-21T04:22:35.719Z,0.00
2018-11-21T04:25:04.830Z,0.20
2018-11-21T04:27:33.465Z,0.20
2018-11-21T04:30:02.123Z,0.00
2018-11-21T04:32:32.175Z,-0.30
2018-11-21T04:34:59.865Z,-0.40
2018-11-21T04:37:28.815Z,-0.40
2018-11-21T04:39:57.462Z,-0.40
2018-11-21T04:42:26.196Z,-0.50
2018-11-21T04:44:55.051Z,-0.50
2018-11-21T04:47:23.936Z,-0.50
2018-11-21T04:49:52.714Z,-0.40
2018-11-21T04:52:21.488Z,-0.40
2018-11-21T04:54:50.413Z,-0.50
2018-11-21T04:57:19.181Z,-0.40
2018-11-21T04:59:47.992Z,-0.60
2018-11-21T05:02:16.684Z,-0.70
2018-11-21T05:04:45.330Z,-0.70
2018-11-21T05:07:14.164Z,-0.80
2018-11-21T05:09:43.026Z,-0.80
2018-11-21T05:12:11.810Z,-0.90
2018-11-21T05:14:40.717Z,-0.90
2018-11-21T05:17:09.497Z,-1.00
2018-11-21T05:19:38.161Z,-0.90
2018-11-21T05:22:06.842Z,-0.80
2018-11-21T05:24:35.746Z,-0.70
2018-11-21T05:27:04.371Z,-0.90
2018-11-21T05:29:33.247Z,-1.00
2018-11-21T05:32:01.897Z,-1.00
2018-11-21T05:34:30.818Z,-1.00
2018-11-21T05:36:59.608Z,-1.10
2018-11-21T05:39:28.266Z,-1.10
2018-11-21T05:41:56.937Z,-1.00
2018-11-21T05:44:31.242Z,-0.80
2018-11-21T05:46:54.667Z,-0.80
2018-11-21T05:49:23.428Z,-0.80
2018-11-21T05:51:52.269Z,-0.80
2018-11-21T05:54:20.996Z,-0.80
2018-11-21T05:56:49.749Z,-0.90
2018-11-21T05:59:18.724Z,-0.90
2018-11-21T06:01:47.609Z,-0.90
2018-11-21T06:04:16.291Z,-0.90
2018-11-21T06:06:45.691Z,-1.10
2018-11-21T06:09:14.508Z,-1.10
2018-11-21T06:11:43.380Z,-1.10
2018-11-21T06:14:12.044Z,-1.00
2018-11-21T06:16:40.856Z,-1.10
2018-11-21T06:19:09.734Z,-1.20
2018-11-21T06:21:38.672Z,-1.20
2018-11-21T06:24:07.458Z,-0.90
2018-11-21T06:26:36.410Z,-1.10
2018-11-21T06:29:06.569Z,-1.00
2018-11-21T06:31:35.501Z,-1.10
2018-11-21T06:34:04.414Z,-1.30
2018-11-21T06:36:33.264Z,-1.30
2018-11-21T06:39:02.494Z,-1.20
2018-11-21T06:41:31.417Z,-1.30
2018-11-21T06:44:00.368Z,-1.20
2018-11-21T06:46:29.242Z,-1.10
2018-11-21T06:48:57.947Z,-1.30
2018-11-21T06:51:26.651Z,-1.30
2018-11-21T06:53:55.375Z,-1.30
2018-11-21T06:56:24.117Z,-1.40
2018-11-21T06:58:55.236Z,-1.20
2018-11-21T07:01:21.480Z,-1.20
2018-11-21T07:03:50.361Z,-1.00
2018-11-21T07:06:19.167Z,-1.00
2018-11-21T07:08:47.861Z,-1.30
2018-11-21T07:11:16.764Z,-1.30
2018-11-21T07:13:45.551Z,-1.40
2018-11-21T07:16:14.422Z,-1.40
2018-11-21T07:18:43.397Z,-1.20
2018-11-21T07:21:12.702Z,-1.10
2018-11-21T07:23:41.575Z,-1.30
2018-11-21T07:26:10.521Z,-1.40
2018-11-21T07:28:39.389Z,-1.40
2018-11-21T07:31:08.042Z,-1.40
2018-11-21T07:33:36.833Z,-1.40
2018-11-21T07:36:06.501Z,-1.40
2018-11-21T07:38:35.375Z,-1.40
2018-11-21T07:41:04.243Z,-1.20
2018-11-21T07:43:33.131Z,-1.20
2018-11-21T07:46:01.898Z,-1.20
2018-11-21T07:48:30.694Z,-1.10
2018-11-21T07:51:02.442Z,-1.00
2018-11-21T07:53:28.390Z,-0.90
2018-11-21T07:55:57.185Z,-0.70
2018-11-21T07:58:26.769Z,-0.60
2018-11-21T08:01:24.603Z,-0.50
2018-11-21T08:03:55.120Z,-0.30
2018-11-21T08:06:45.869Z,-0.30
2018-11-21T08:09:39.903Z,-0.20
2018-11-21T08:12:30.880Z,-0.30
2018-11-21T08:15:19.493Z,-0.20
2018-11-21T08:18:21.701Z,-0.10
2018-11-21T08:21:12.462Z,-0.10
2018-11-21T08:24:02.885Z,0.00
2018-11-21T08:27:00.892Z,0.00
2018-11-21T08:29:29.570Z,0.00
2018-11-21T08:31:58.386Z,0.10
2018-11-21T08:34:27.213Z,0.00
2018-11-21T08:36:56.040Z,0.10
2018-11-21T08:39:24.925Z,0.10
2018-11-21T08:41:53.632Z,0.10
2018-11-21T08:44:22.485Z,0.20
2018-11-21T08:46:51.258Z,0.20
2018-11-21T08:49:20.101Z,0.20
2018-11-21T08:51:49.062Z,0.20
2018-11-21T08:54:17.882Z,0.40
2018-11-21T08:56:46.775Z,0.40
2018-11-21T08:59:15.531Z,0.40
2018-11-21T09:01:44.651Z,0.50
2018-11-21T09:04:13.361Z,0.80
2018-11-21T09:06:42.113Z,0.90
2018-11-21T09:09:11.012Z,1.00
2018-11-21T09:11:58.141Z,1.00
2018-11-21T09:14:26.799Z,1.00
2018-11-21T09:16:55.678Z,1.10
2018-11-21T09:19:24.570Z,1.20
2018-11-21T09:21:53.338Z,1.30
2018-11-21T09:24:22.277Z,1.40
2018-11-21T09:26:51.134Z,1.60
2018-11-21T09:29:19.922Z,1.80
2018-11-21T09:31:48.690Z,2.00
2018-11-21T09:34:17.502Z,2.10
2018-11-21T09:36:46.453Z,2.20
2018-11-21T09:39:15.355Z,2.20
2018-11-21T09:41:44.178Z,2.10
2018-11-21T09:44:12.835Z,2.00
2018-11-21T09:46:41.591Z,1.90
2018-11-21T09:49:10.508Z,1.90
2018-11-21T09:51:39.405Z,1.90
2018-11-21T09:54:08.088Z,2.00
2018-11-21T09:56:36.940Z,2.20
2018-11-21T09:59:05.798Z,2.30
2018-11-21T10:02:11.035Z,2.40
2018-11-21T10:04:39.709Z,2.60
2018-11-21T10:07:08.621Z,3.70
2018-11-21T10:09:40.360Z,3.70
2018-11-21T10:12:09.005Z,3.50
2018-11-21T10:14:37.848Z,3.30
2018-11-21T10:17:06.585Z,3.20
2018-11-21T10:19:35.228Z,3.20
2018-11-21T10:22:03.877Z,3.10
2018-11-21T10:24:32.729Z,3.20
2018-11-21T10:27:01.567Z,3.30
2018-11-21T10:29:30.381Z,3.20
2018-11-21T10:31:59.312Z,3.20
2018-11-21T10:34:28.123Z,3.30
2018-11-21T10:36:57.037Z,3.30
2018-11-21T10:39:25.852Z,3.30
2018-11-21T10:41:54.803Z,3.40
2018-11-21T10:44:23.622Z,3.50
2018-11-21T10:46:52.399Z,3.60
2018-11-21T10:49:21.283Z,3.50
2018-11-21T10:51:50.094Z,3.60
2018-11-21T10:54:18.791Z,3.90
2018-11-21T10:56:47.587Z,3.90
2018-11-21T10:59:16.453Z,4.10
2018-11-21T11:02:12.915Z,4.20
2018-11-21T11:05:12.443Z,4.20
2018-11-21T11:08:06.334Z,4.20
2018-11-21T11:10:54.239Z,4.30
2018-11-21T11:13:42.121Z,4.40
2018-11-21T11:16:28.791Z,4.40
2018-11-21T11:19:15.452Z,4.40
2018-11-21T11:22:15.208Z,4.50
2018-11-21T11:25:03.294Z,4.50
2018-11-21T11:27:49.579Z,4.60
2018-11-21T11:30:36.162Z,4.70
2018-11-21T11:33:24.189Z,4.70
2018-11-21T11:36:10.854Z,4.80
2018-11-21T11:38:58.643Z,4.90
2018-11-21T11:41:45.083Z,4.80
2018-11-21T11:44:31.258Z,4.80
2018-11-21T11:47:25.123Z,4.90
2018-11-21T11:50:21.626Z,4.80
2018-11-21T11:53:18.553Z,4.90
2018-11-21T11:56:08.872Z,5.00
2018-11-21T11:59:11.564Z,5.00
2018-11-21T12:01:57.884Z,5.10
2018-11-21T12:04:48.575Z,5.20
2018-11-21T12:07:34.992Z,5.20
2018-11-21T12:10:41.099Z,5.10
2018-11-21T12:13:37.796Z,5.20
2018-11-21T12:16:28.503Z,5.30
2018-11-21T12:19:14.829Z,5.50
2018-11-21T12:22:00.133Z,5.70
2018-11-21T12:25:05.980Z,5.80
2018-11-21T12:27:42.091Z,6.30
2018-11-21T12:30:28.517Z,6.30
2018-11-21T12:33:28.532Z,6.30
2018-11-21T12:36:19.441Z,6.20
2018-11-21T12:39:10.281Z,6.20
2018-11-21T12:41:53.022Z,6.30
2018-11-21T12:44:46.564Z,6.30
2018-11-21T12:47:43.083Z,6.20
2018-11-21T12:50:33.495Z,6.10
2018-11-21T12:53:25.485Z,5.90
2018-11-21T12:56:09.383Z,5.60
2018-11-21T12:58:55.543Z,5.60
2018-11-21T13:01:36.842Z,5.60
2018-11-21T13:04:16.414Z,5.80
2018-11-21T13:07:16.071Z,5.80
2018-11-21T13:10:02.542Z,5.80
2018-11-21T13:12:48.693Z,5.70
2018-11-21T13:15:45.322Z,5.70
2018-11-21T13:18:30.570Z,5.80
2018-11-21T13:21:27.316Z,5.90
2018-11-21T13:24:20.794Z,5.90
2018-11-21T13:27:07.091Z,5.90
2018-11-21T13:29:51.339Z,5.90
2018-11-21T13:32:37.621Z,5.90
2018-11-21T13:35:28.707Z,6.00
2018-11-21T13:38:23.404Z,5.90
2018-11-21T13:41:19.092Z,5.90
2018-11-21T13:44:09.838Z,5.90
2018-11-21T13:47:00.628Z,5.90
2018-11-21T13:49:42.038Z,5.90
2018-11-21T13:52:29.643Z,6.00
2018-11-21T13:54:59.659Z,6.00
2018-11-21T13:57:29.022Z,6.00
2018-11-21T13:59:57.765Z,5.90
2018-11-21T14:02:26.785Z,6.00
2018-11-21T14:04:55.707Z,6.00
2018-11-21T14:07:24.548Z,6.10
2018-11-21T14:09:53.283Z,6.00
2018-11-21T14:12:22.056Z,5.90
2018-11-21T14:14:50.887Z,5.80
2018-11-21T14:17:27.286Z,5.90
2018-11-21T14:19:48.431Z,5.80
2018-11-21T14:22:17.168Z,5.70
2018-11-21T14:24:46.016Z,5.70
2018-11-21T14:27:14.686Z,5.70
2018-11-21T14:29:43.502Z,5.70
2018-11-21T14:32:12.283Z,5.60
2018-11-21T14:34:41.163Z,5.60
2018-11-21T14:37:09.872Z,5.60
2018-11-21T14:39:39.125Z,5.60
2018-11-21T14:42:08.600Z,5.60
2018-11-21T14:44:36.535Z,5.60
2018-11-21T14:47:07.519Z,5.60
2018-11-21T14:49:41.730Z,5.50
2018-11-21T14:52:10.420Z,5.50
2018-11-21T14:54:39.266Z,5.50
2018-11-21T14:57:08.080Z,5.50
2018-11-21T14:59:36.841Z,5.50
2018-11-21T15:02:05.786Z,5.50
2018-11-21T15:04:34.857Z,5.40
2018-11-21T15:07:03.715Z,5.30
2018-11-21T15:09:32.612Z,5.20
2018-11-21T15:12:01.416Z,5.10
2018-11-21T15:14:30.121Z,5.00
2018-11-21T15:16:58.905Z,4.90
2018-11-21T15:19:27.782Z,4.80
2018-11-21T15:21:56.649Z,4.80
2018-11-21T15:24:25.850Z,4.60
2018-11-21T15:26:54.567Z,4.60
2018-11-21T15:29:23.589Z,4.60
2018-11-21T15:31:52.245Z,4.50
2018-11-21T15:34:21.259Z,4.40
2018-11-21T15:36:50.110Z,4.30
2018-11-21T15:39:18.789Z,4.20
2018-11-21T15:41:47.467Z,4.20
2018-11-21T15:44:16.164Z,4.10
2018-11-21T15:46:45.781Z,4.10
2018-11-21T15:49:13.872Z,4.10
2018-11-21T15:51:42.624Z,4.10
2018-11-21T15:54:11.450Z,4.00
2018-11-21T15:56:40.157Z,4.10
2018-11-21T15:59:08.991Z,4.10
2018-11-21T16:01:37.798Z,4.00
2018-11-21T16:04:06.711Z,4.00
2018-11-21T16:06:35.435Z,4.00
2018-11-21T16:09:06.843Z,3.90
2018-11-21T16:11:35.785Z,3.90
2018-11-21T16:14:04.690Z,3.80
2018-11-21T16:16:33.542Z,3.70
2018-11-21T16:19:02.330Z,3.60
2018-11-21T16:21:31.148Z,3.60
2018-11-21T16:23:59.950Z,3.50
2018-11-21T16:26:28.749Z,3.50
2018-11-21T16:28:57.424Z,3.40
2018-11-21T16:31:26.364Z,3.50
2018-11-21T16:33:55.283Z,3.40
2018-11-21T16:36:27.227Z,3.30
2018-11-21T16:38:52.998Z,3.10
2018-11-21T16:41:21.784Z,3.10
2018-11-21T16:43:50.445Z,3.20
2018-11-21T16:46:19.273Z,3.20
2018-11-21T16:48:47.940Z,3.20
2018-11-21T16:51:16.641Z,3.10
2018-11-21T16:53:45.342Z,3.00
2018-11-21T16:56:14.034Z,2.90
2018-11-21T16:58:42.881Z,2.90
2018-11-21T17:01:11.675Z,3.00
2018-11-21T17:03:40.547Z,3.00
2018-11-21T17:06:09.441Z,3.00
2018-11-21T17:08:38.128Z,3.00
2018-11-21T17:11:06.859Z,2.90
2018-11-21T17:13:35.720Z,3.00
2018-11-21T17:16:04.658Z,3.10
2018-11-21T17:18:33.323Z,3.10
2018-11-21T17:21:02.367Z,3.20
2018-11-21T17:23:31.068Z,3.30
2018-11-21T17:25:59.832Z,3.40
2018-11-21T17:28:28.640Z,3.30
2018-11-21T17:30:57.471Z,3.30
2018-11-21T17:33:26.205Z,3.30
2018-11-21T17:35:55.023Z,3.40
2018-11-21T17:38:23.824Z,3.40
2018-11-21T17:40:52.602Z,3.50
2018-11-21T17:43:21.373Z,3.40
2018-11-21T17:45:50.071Z,3.30
2018-11-21T17:48:18.854Z,3.20
2018-11-21T17:50:47.842Z,3.10
2018-11-21T17:53:16.690Z,3.20
2018-11-21T17:55:45.361Z,3.30
2018-11-21T17:58:14.016Z,3.20
2018-11-21T18:00:42.824Z,3.20
2018-11-21T18:03:11.701Z,3.20
2018-11-21T18:05:41.415Z,3.10
2018-11-21T18:08:10.228Z,3.00
2018-11-21T18:10:57.446Z,3.00
2018-11-21T18:13:26.542Z,2.90
2018-11-21T18:16:31.405Z,2.90
2018-11-21T18:19:00.161Z,2.80
2018-11-21T18:21:47.134Z,2.70
2018-11-21T18:24:15.981Z,2.90
2018-11-21T18:26:44.637Z,3.10
2018-11-21T18:29:13.556Z,3.00
2018-11-21T18:31:42.377Z,3.00
2018-11-21T18:34:11.303Z,3.00
2018-11-21T18:36:40.215Z,2.90
2018-11-21T18:39:10.960Z,2.70
2018-11-21T18:41:39.892Z,2.60
2018-11-21T18:44:08.610Z,2.60
2018-11-21T18:46:37.322Z,2.70
2018-11-21T18:49:06.385Z,2.60
2018-11-21T18:51:35.164Z,2.50
2018-11-21T18:54:04.313Z,2.30
2018-11-21T18:56:36.465Z,2.30
2018-11-21T18:59:41.553Z,2.20
2018-11-21T19:02:10.501Z,2.00
2018-11-21T19:04:39.203Z,2.00
2018-11-21T19:07:08.060Z,2.00
2018-11-21T19:09:36.820Z,2.00
2018-11-21T19:12:05.803Z,2.10
2018-11-21T19:14:34.565Z,2.10
2018-11-21T19:17:03.402Z,1.90
2018-11-21T19:19:32.290Z,1.80
2018-11-21T19:22:01.128Z,1.70
2018-11-21T19:24:29.983Z,1.60
2018-11-21T19:26:58.844Z,1.70
2018-11-21T19:29:27.774Z,1.50
2018-11-21T19:31:56.427Z,1.30
2018-11-21T19:34:25.230Z,1.20
2018-11-21T19:36:54.036Z,1.20
2018-11-21T19:39:22.941Z,1.10
2018-11-21T19:41:51.629Z,1.20
2018-11-21T19:44:20.638Z,1.10
2018-11-21T19:46:49.325Z,1.00
2018-11-21T19:49:18.072Z,1.00
2018-11-21T19:51:46.878Z,0.90
2018-11-21T19:54:15.863Z,0.90
2018-11-21T19:56:44.833Z,0.80
2018-11-21T19:59:13.539Z,0.70
2018-11-21T20:01:42.350Z,0.70
2018-11-21T20:04:11.231Z,0.60
2018-11-21T20:06:40.066Z,0.60
2018-11-21T20:09:10.873Z,0.50
2018-11-21T20:11:39.716Z,0.50
2018-11-21T20:14:08.506Z,0.30
2018-11-21T20:16:37.319Z,0.30
2018-11-21T20:19:06.203Z,0.30
2018-11-21T20:21:34.989Z,0.50
2018-11-21T20:24:03.633Z,0.30
2018-11-21T20:26:32.375Z,0.10
2018-11-21T20:29:01.352Z,0.20
2018-11-21T20:31:30.291Z,0.10
2018-11-21T20:33:59.124Z,0.00
2018-11-21T20:36:27.892Z,0.10
2018-11-21T20:38:56.736Z,0.10
2018-11-21T20:41:25.555Z,0.00
2018-11-21T20:43:54.393Z,0.00
2018-11-21T20:46:23.383Z,-0.10
2018-11-21T20:48:52.299Z,-0.30
2018-11-21T20:51:21.009Z,-0.20
2018-11-21T20:53:49.678Z,-0.20
2018-11-21T20:56:18.553Z,-0.20
2018-11-21T20:58:47.286Z,-0.30
2018-11-21T21:01:16.080Z,-0.30
2018-11-21T21:03:44.825Z,-0.40
2018-11-21T21:06:13.666Z,-0.40
2018-11-21T21:08:42.384Z,-0.50
2018-11-21T21:11:11.401Z,-0.50
2018-11-21T21:13:40.286Z,-0.50
2018-11-21T21:16:09.016Z,-0.50
2018-11-21T21:18:37.750Z,-0.60
2018-11-21T21:21:06.631Z,-0.70
2018-11-21T21:23:35.410Z,-0.70
2018-11-21T21:26:04.070Z,-0.70
2018-11-21T21:28:32.861Z,-0.60
2018-11-21T21:31:01.652Z,-0.80
2018-11-21T21:33:30.622Z,-0.80
2018-11-21T21:35:59.447Z,-0.60
2018-11-21T21:38:28.339Z,-0.70
2018-11-21T21:40:57.167Z,-0.80
2018-11-21T21:43:26.036Z,-0.80
2018-11-21T21:45:54.893Z,-0.80
2018-11-21T21:48:23.687Z,-0.90
2018-11-21T21:50:52.463Z,-0.90
2018-11-21T21:53:21.195Z,-0.80
2018-11-21T21:55:49.928Z,-0.80
2018-11-21T21:58:18.638Z,-0.80
2018-11-21T22:00:47.635Z,-0.80
2018-11-21T22:03:16.639Z,-0.80
2018-11-21T22:05:45.282Z,-0.70
2018-11-21T22:08:14.179Z,-0.80
2018-11-21T22:10:43.015Z,-0.90
2018-11-21T22:13:23.775Z,-1.00
2018-11-21T22:15:52.748Z,-0.80
2018-11-21T22:18:22.962Z,-0.80
2018-11-21T22:20:50.442Z,-0.90
2018-11-21T22:23:19.152Z,-1.00
2018-11-21T22:25:48.026Z,-1.00
2018-11-21T22:28:16.905Z,-1.00
2018-11-21T22:30:45.683Z,-0.90
2018-11-21T22:33:14.451Z,-0.90
2018-11-21T22:35:43.153Z,-1.10
2018-11-21T22:38:11.888Z,-1.20
2018-11-21T22:40:40.747Z,-1.20
2018-11-21T22:43:09.620Z,-1.30
2018-11-21T22:45:38.532Z,-1.10
2018-11-21T22:48:07.249Z,-0.90
2018-11-21T22:50:35.947Z,-1.10
2018-11-21T22:53:04.597Z,-1.30
2018-11-21T22:55:33.602Z,-1.30
2018-11-21T22:58:02.578Z,-1.30
2018-11-21T23:00:48.176Z,-1.00
2018-11-21T23:03:18.488Z,-1.30
2018-11-21T23:05:47.250Z,-1.30
2018-11-21T23:08:16.161Z,-1.30
2018-11-21T23:10:45.155Z,-1.20
2018-11-21T23:13:13.940Z,-1.30
2018-11-21T23:15:42.727Z,-1.30
2018-11-21T23:18:11.624Z,-1.30
2018-11-21T23:20:40.342Z,-1.40
2018-11-21T23:23:09.293Z,-1.40
2018-11-21T23:25:38.058Z,-1.40
2018-11-21T23:28:06.783Z,-1.40
2018-11-21T23:30:35.766Z,-1.60
2018-11-21T23:33:04.778Z,-1.70
2018-11-21T23:35:33.498Z,-1.70
2018-11-21T23:38:02.330Z,-1.70
2018-11-21T23:40:31.248Z,-1.50
2018-11-21T23:42:59.900Z,-1.60
2018-11-21T23:45:28.827Z,-1.60
2018-11-21T23:47:57.656Z,-1.80
2018-11-21T23:50:26.430Z,-1.80
2018-11-21T23:52:55.270Z,-1.90
2018-11-21T23:55:23.958Z,-1.80
2018-11-21T23:57:52.669Z,-1.60
